createdAt,value
2023-02-22T00:01:35.298Z,20.50
2023-02-22T00:03:39.040Z,19.73
2023-02-22T00:05:40.822Z,19.90
2023-02-22T00:07:44.662Z,19.33
2023-02-22T00:09:46.131Z,20.08
2023-02-22T00:11:48.786Z,19.60
2023-02-22T00:13:50.692Z,18.42
2023-02-22T00:15:52.147Z,19.23
2023-02-22T00:17:54.941Z,19.90
2023-02-22T00:19:56.398Z,19.90
2023-02-22T00:21:58.098Z,20.23
2023-02-22T00:23:59.604Z,18.92
2023-02-22T00:26:01.285Z,19.48
2023-02-22T00:28:04.958Z,20.73
2023-02-22T00:30:07.263Z,18.58
2023-02-22T00:32:09.085Z,20.45
2023-02-22T00:34:10.591Z,19.45
2023-02-22T00:36:13.701Z,20.17
2023-02-22T00:38:17.857Z,19.35
2023-02-22T00:40:23.260Z,18.63
2023-02-22T00:42:24.738Z,17.58
2023-02-22T00:44:27.441Z,20.08
2023-02-22T00:46:28.917Z,18.27
2023-02-22T00:48:30.400Z,17.30
2023-02-22T00:50:32.937Z,18.75
2023-02-22T00:52:36.046Z,17.95
2023-02-22T00:54:37.565Z,17.20
2023-02-22T00:56:39.306Z,18.15
2023-02-22T00:58:40.815Z,18.35
2023-02-22T01:00:43.628Z,17.67
2023-02-22T01:02:45.223Z,17.80
2023-02-22T01:04:46.690Z,18.27
2023-02-22T01:06:48.286Z,17.83
2023-02-22T01:08:49.757Z,17.08
2023-02-22T01:10:52.609Z,17.27
2023-02-22T01:12:55.385Z,17.45
2023-02-22T01:14:58.611Z,17.38
2023-02-22T01:17:00.128Z,17.80
2023-02-22T01:19:01.609Z,17.95
2023-02-22T01:21:06.524Z,17.30
2023-02-22T01:23:08.291Z,17.17
2023-02-22T01:25:11.455Z,18.02
2023-02-22T01:27:13.762Z,17.10
2023-02-22T01:29:16.617Z,18.00
2023-02-22T01:31:18.428Z,17.80
2023-02-22T01:33:20.182Z,18.00
2023-02-22T01:35:25.562Z,17.65
2023-02-22T01:37:27.379Z,18.83
2023-02-22T01:39:28.847Z,17.55
2023-02-22T01:41:30.302Z,18.17
2023-02-22T01:43:33.197Z,18.77
2023-02-22T01:45:40.744Z,18.30
2023-02-22T01:47:42.839Z,18.63
2023-02-22T01:49:50.864Z,18.38
2023-02-22T01:51:56.584Z,17.67
2023-02-22T01:54:10.069Z,19.05
2023-02-22T01:56:12.947Z,18.80
2023-02-22T01:58:18.524Z,18.80
2023-02-22T02:00:22.105Z,18.63
2023-02-22T02:02:25.168Z,17.88
2023-02-22T02:04:27.994Z,18.73
2023-02-22T02:06:33.510Z,18.33
2023-02-22T02:08:49.663Z,17.92
2023-02-22T02:10:53.413Z,17.90
2023-02-22T02:12:57.411Z,19.00
2023-02-22T02:15:23.530Z,18.65
2023-02-22T02:17:25.020Z,19.30
2023-02-22T02:19:38.511Z,19.55
2023-02-22T02:21:54.793Z,18.98
2023-02-22T02:24:21.248Z,19.45
2023-02-22T02:26:46.979Z,18.58
2023-02-22T02:29:25.896Z,18.67
2023-02-22T02:31:34.891Z,18.95
2023-02-22T02:33:57.029Z,17.58
2023-02-22T02:36:36.243Z,18.75
2023-02-22T02:38:49.289Z,18.58
2023-02-22T02:41:12.154Z,18.15
2023-02-22T02:43:22.846Z,18.08
2023-02-22T02:45:34.270Z,18.67
2023-02-22T02:47:42.342Z,17.92
2023-02-22T02:49:58.138Z,19.13
2023-02-22T02:52:02.745Z,18.17
2023-02-22T02:54:05.786Z,19.42
2023-02-22T02:56:07.654Z,18.77
2023-02-22T02:58:09.511Z,19.35
2023-02-22T03:00:24.163Z,18.83
2023-02-22T03:02:28.490Z,19.30
2023-02-22T03:04:45.248Z,19.40
2023-02-22T03:07:05.860Z,18.95
2023-02-22T03:09:42.991Z,17.67
2023-02-22T03:12:01.365Z,19.48
2023-02-22T03:14:16.416Z,18.45
2023-02-22T03:16:21.082Z,18.80
2023-02-22T03:18:31.626Z,18.95
2023-02-22T03:20:45.385Z,19.10
2023-02-22T03:22:59.004Z,19.17
2023-02-22T03:25:43.435Z,17.77
2023-02-22T03:27:53.306Z,17.67
2023-02-22T03:30:00.413Z,19.42
2023-02-22T03:32:07.344Z,17.88
2023-02-22T03:34:16.005Z,18.65
2023-02-22T03:36:25.122Z,17.67
2023-02-22T03:38:29.753Z,18.00
2023-02-22T03:40:35.030Z,16.85
2023-02-22T03:42:38.206Z,18.33
2023-02-22T03:44:43.569Z,17.90
2023-02-22T03:46:47.738Z,17.55
2023-02-22T03:49:00.185Z,18.52
2023-02-22T03:51:04.607Z,19.10
2023-02-22T03:53:07.459Z,18.90
2023-02-22T03:55:11.270Z,18.42
2023-02-22T03:57:20.874Z,18.05
2023-02-22T03:59:27.296Z,20.23
2023-02-22T04:01:28.798Z,19.85
2023-02-22T04:03:30.301Z,20.25
2023-02-22T04:05:31.785Z,20.48
2023-02-22T04:07:33.323Z,21.13
2023-02-22T04:09:34.769Z,22.42
2023-02-22T04:11:36.603Z,21.90
2023-02-22T04:13:38.075Z,19.60
2023-02-22T04:15:39.562Z,20.85
2023-02-22T04:17:41.241Z,21.80
2023-02-22T04:19:45.092Z,23.20
2023-02-22T04:21:46.689Z,21.88
2023-02-22T04:23:48.184Z,22.27
2023-02-22T04:25:49.660Z,21.85
2023-02-22T04:27:51.712Z,22.50
2023-02-22T04:29:53.247Z,20.77
2023-02-22T04:31:54.794Z,21.70
2023-02-22T04:33:56.291Z,22.58
2023-02-22T04:35:57.855Z,22.67
2023-02-22T04:37:59.330Z,21.63
2023-02-22T04:40:01.672Z,22.10
2023-02-22T04:42:03.252Z,22.02
2023-02-22T04:44:04.879Z,20.63
2023-02-22T04:46:06.440Z,23.15
2023-02-22T04:48:07.976Z,21.55
2023-02-22T04:50:11.417Z,22.95
2023-02-22T04:52:12.873Z,21.92
2023-02-22T04:54:14.450Z,22.67
2023-02-22T04:56:19.898Z,22.35
2023-02-22T04:58:21.617Z,22.85
2023-02-22T05:00:24.011Z,21.33
2023-02-22T05:02:25.539Z,22.05
2023-02-22T05:04:27.132Z,21.83
2023-02-22T05:06:28.640Z,22.05
2023-02-22T05:08:30.156Z,22.52
2023-02-22T05:10:31.637Z,22.13
2023-02-22T05:12:33.111Z,21.88
2023-02-22T05:14:34.657Z,21.30
2023-02-22T05:16:36.575Z,21.10
2023-02-22T05:18:38.071Z,21.88
2023-02-22T05:20:39.778Z,18.77
2023-02-22T05:22:41.227Z,19.00
2023-02-22T05:24:43.920Z,18.40
2023-02-22T05:26:46.540Z,16.65
2023-02-22T05:28:48.015Z,15.43
2023-02-22T05:30:49.615Z,15.05
2023-02-22T05:32:51.743Z,15.55
2023-02-22T05:34:53.240Z,14.90
2023-02-22T05:36:54.738Z,13.73
2023-02-22T05:38:56.510Z,14.18
2023-02-22T05:40:57.979Z,14.73
2023-02-22T05:43:02.138Z,15.05
2023-02-22T05:45:03.861Z,14.77
2023-02-22T05:47:05.374Z,14.10
2023-02-22T05:49:07.099Z,14.43
2023-02-22T05:51:09.720Z,15.38
2023-02-22T05:53:11.315Z,14.30
2023-02-22T05:55:14.763Z,13.93
2023-02-22T05:57:16.687Z,16.50
2023-02-22T05:59:18.225Z,15.02
2023-02-22T06:01:20.409Z,15.02
2023-02-22T06:03:22.476Z,13.70
2023-02-22T06:05:24.244Z,14.30
2023-02-22T06:07:25.882Z,14.18
2023-02-22T06:09:27.390Z,13.98
2023-02-22T06:11:28.856Z,13.65
2023-02-22T06:13:30.355Z,14.57
2023-02-22T06:15:31.844Z,12.65
2023-02-22T06:17:33.349Z,15.35
2023-02-22T06:19:34.928Z,14.70
2023-02-22T06:21:36.369Z,14.05
2023-02-22T06:23:37.943Z,13.35
2023-02-22T06:25:39.421Z,13.13
2023-02-22T06:27:40.943Z,12.60
2023-02-22T06:29:46.940Z,12.77
2023-02-22T06:31:48.449Z,13.50
2023-02-22T06:33:49.987Z,13.10
2023-02-22T06:35:51.467Z,13.57
2023-02-22T06:37:53.015Z,12.65
2023-02-22T06:39:54.533Z,13.93
2023-02-22T06:41:57.782Z,13.63
2023-02-22T06:43:59.286Z,13.05
2023-02-22T06:46:00.798Z,13.40
2023-02-22T06:48:02.326Z,13.90
2023-02-22T06:50:03.908Z,14.95
2023-02-22T06:52:06.953Z,15.45
2023-02-22T06:54:08.720Z,14.77
2023-02-22T06:56:10.172Z,14.00
2023-02-22T06:58:11.618Z,16.00
2023-02-22T07:00:16.220Z,15.10
2023-02-22T07:02:17.694Z,15.45
2023-02-22T07:04:19.175Z,16.67
2023-02-22T07:06:20.847Z,15.88
2023-02-22T07:08:22.303Z,17.70
2023-02-22T07:10:27.803Z,16.85
2023-02-22T07:12:29.263Z,17.13
2023-02-22T07:14:30.765Z,15.60
2023-02-22T07:16:32.292Z,16.63
2023-02-22T07:18:33.796Z,16.73
2023-02-22T07:20:35.330Z,16.73
2023-02-22T07:22:37.676Z,16.17
2023-02-22T07:24:40.740Z,15.32
2023-02-22T07:26:42.710Z,15.88
2023-02-22T07:28:44.168Z,16.38
2023-02-22T07:30:45.690Z,16.05
2023-02-22T07:32:47.626Z,15.48
2023-02-22T07:34:49.145Z,15.40
2023-02-22T07:36:50.646Z,15.68
2023-02-22T07:38:52.091Z,15.73
2023-02-22T07:40:53.680Z,14.45
2023-02-22T07:42:57.934Z,14.93
2023-02-22T07:44:59.447Z,15.18
2023-02-22T07:47:02.526Z,15.88
2023-02-22T07:49:04.041Z,15.73
2023-02-22T07:51:06.099Z,15.23
2023-02-22T07:53:21.306Z,14.68
2023-02-22T07:55:25.994Z,15.25
2023-02-22T07:57:27.580Z,15.35
2023-02-22T07:59:29.055Z,15.13
2023-02-22T08:01:31.887Z,14.65
2023-02-22T08:03:36.517Z,14.55
2023-02-22T08:05:40.234Z,15.15
2023-02-22T08:07:43.243Z,14.75
2023-02-22T08:09:44.715Z,14.55
2023-02-22T08:11:46.182Z,13.43
2023-02-22T08:13:47.660Z,13.98
2023-02-22T08:15:52.051Z,13.85
2023-02-22T08:17:53.680Z,13.88
2023-02-22T08:19:55.321Z,14.52
2023-02-22T08:21:56.763Z,14.73
2023-02-22T08:23:58.281Z,14.07
2023-02-22T08:26:10.916Z,14.07
2023-02-22T08:28:15.173Z,14.45
2023-02-22T08:30:23.168Z,13.77
2023-02-22T08:32:24.923Z,14.18
2023-02-22T08:34:27.264Z,13.60
2023-02-22T08:36:29.541Z,13.10
2023-02-22T08:38:32.662Z,13.63
2023-02-22T08:40:37.031Z,14.63
2023-02-22T08:42:38.909Z,14.88
2023-02-22T08:44:41.002Z,14.98
2023-02-22T08:46:42.503Z,14.30
2023-02-22T08:49:03.066Z,15.07
2023-02-22T08:51:04.650Z,14.70
2023-02-22T08:53:06.148Z,14.95
2023-02-22T08:55:07.990Z,14.10
2023-02-22T08:57:09.466Z,13.73
2023-02-22T08:59:11.046Z,15.55
2023-02-22T09:01:14.043Z,13.73
2023-02-22T09:03:17.078Z,14.23
2023-02-22T09:05:19.790Z,13.85
2023-02-22T09:07:21.316Z,14.10
2023-02-22T09:09:22.790Z,14.75
2023-02-22T09:11:24.288Z,13.50
2023-02-22T09:13:25.833Z,13.18
2023-02-22T09:15:27.989Z,14.57
2023-02-22T09:17:29.496Z,14.13
2023-02-22T09:19:31.066Z,14.07
2023-02-22T09:21:32.555Z,13.65
2023-02-22T09:23:34.740Z,13.57
2023-02-22T09:25:36.251Z,14.00
2023-02-22T09:27:38.796Z,13.32
2023-02-22T09:29:40.458Z,14.60
2023-02-22T09:31:41.996Z,14.27
2023-02-22T09:33:44.310Z,13.88
2023-02-22T09:35:49.808Z,15.27
2023-02-22T09:37:51.350Z,13.93
2023-02-22T09:39:52.905Z,14.57
2023-02-22T09:42:13.515Z,13.40
2023-02-22T09:44:39.125Z,14.55
2023-02-22T09:46:45.639Z,15.18
2023-02-22T09:49:07.843Z,13.82
2023-02-22T09:51:17.088Z,14.13
2023-02-22T09:53:29.551Z,14.00
2023-02-22T09:55:51.163Z,14.50
2023-02-22T09:57:55.490Z,15.10
2023-02-22T10:00:13.615Z,14.80
2023-02-22T10:02:31.499Z,14.88
2023-02-22T10:05:08.351Z,14.98
2023-02-22T10:07:25.994Z,15.27
2023-02-22T10:09:30.359Z,14.98
2023-02-22T10:11:37.628Z,14.18
2023-02-22T10:13:54.292Z,13.73
2023-02-22T10:16:20.363Z,14.05
2023-02-22T10:18:40.553Z,14.20
2023-02-22T10:21:02.774Z,14.25
2023-02-22T10:23:16.420Z,13.68
2023-02-22T10:25:20.082Z,14.25
2023-02-22T10:27:29.187Z,14.05
2023-02-22T10:29:41.632Z,13.70
2023-02-22T10:31:49.038Z,14.18
2023-02-22T10:34:03.253Z,14.13
2023-02-22T10:36:05.065Z,14.05
2023-02-22T10:38:20.145Z,13.45
2023-02-22T10:40:32.172Z,13.65
2023-02-22T10:42:33.689Z,13.55
2023-02-22T10:44:37.527Z,13.25
2023-02-22T10:46:42.007Z,13.57
2023-02-22T10:48:47.549Z,13.95
2023-02-22T10:50:50.502Z,13.32
2023-02-22T10:52:51.981Z,15.07
2023-02-22T10:55:13.728Z,14.48
2023-02-22T10:57:23.037Z,14.38
2023-02-22T10:59:39.358Z,14.77
2023-02-22T11:01:41.061Z,14.32
2023-02-22T11:03:42.620Z,13.68
2023-02-22T11:05:44.700Z,13.48
2023-02-22T11:07:46.207Z,14.68
2023-02-22T11:09:52.583Z,16.85
2023-02-22T11:12:16.534Z,14.48
2023-02-22T11:14:29.466Z,13.93
2023-02-22T11:16:36.348Z,14.27
2023-02-22T11:18:38.095Z,14.30
2023-02-22T11:20:39.822Z,13.95
2023-02-22T11:22:42.576Z,14.10
2023-02-22T11:24:51.094Z,12.27
2023-02-22T11:26:59.602Z,13.30
2023-02-22T11:29:11.099Z,14.13
2023-02-22T11:31:24.561Z,13.52
2023-02-22T11:33:29.257Z,13.23
2023-02-22T11:35:39.272Z,14.60
2023-02-22T11:37:40.850Z,13.60
2023-02-22T11:39:43.805Z,13.77
2023-02-22T11:41:45.350Z,13.27
2023-02-22T11:43:49.245Z,13.07
2023-02-22T11:46:02.014Z,13.68
2023-02-22T11:48:07.376Z,13.77
2023-02-22T11:50:22.893Z,13.32
2023-02-22T11:52:28.205Z,14.20
2023-02-22T11:55:01.885Z,12.93
2023-02-22T11:57:26.651Z,12.88
2023-02-22T11:59:41.604Z,14.05
2023-02-22T12:01:54.471Z,13.38
2023-02-22T12:04:28.302Z,13.95
2023-02-22T12:06:58.314Z,12.57
2023-02-22T12:09:24.464Z,12.95
2023-02-22T12:11:50.833Z,12.27
2023-02-22T12:14:01.612Z,12.48
2023-02-22T12:16:12.989Z,12.80
2023-02-22T12:18:33.137Z,13.32
2023-02-22T12:20:51.863Z,13.98
2023-02-22T12:23:12.790Z,12.88
2023-02-22T12:25:24.952Z,13.35
2023-02-22T12:27:44.128Z,11.93
2023-02-22T12:29:51.303Z,12.38
2023-02-22T12:32:14.351Z,12.77
2023-02-22T12:34:27.232Z,13.32
2023-02-22T12:36:40.234Z,13.50
2023-02-22T12:38:47.407Z,13.98
2023-02-22T12:41:08.757Z,13.13
2023-02-22T12:43:26.272Z,13.23
2023-02-22T12:45:34.138Z,13.65
2023-02-22T12:47:45.819Z,14.27
2023-02-22T12:50:03.321Z,12.82
2023-02-22T12:52:39.057Z,13.63
2023-02-22T12:54:50.422Z,14.30
2023-02-22T12:57:13.648Z,13.20
2023-02-22T12:59:19.247Z,12.75
2023-02-22T13:01:25.874Z,12.95
2023-02-22T13:03:40.617Z,14.07
2023-02-22T13:05:43.263Z,12.93
2023-02-22T13:08:02.499Z,15.90
2023-02-22T13:10:32.019Z,15.18
2023-02-22T13:12:46.251Z,14.20
2023-02-22T13:14:54.660Z,13.75
2023-02-22T13:17:14.893Z,13.70
2023-02-22T13:19:30.740Z,12.90
2023-02-22T13:21:44.862Z,15.20
2023-02-22T13:23:49.090Z,13.40
2023-02-22T13:26:01.116Z,13.65
2023-02-22T13:28:13.461Z,14.95
2023-02-22T13:30:34.963Z,13.00
2023-02-22T13:32:54.639Z,14.27
2023-02-22T13:35:20.977Z,13.35
2023-02-22T13:37:37.840Z,13.65
2023-02-22T13:39:54.485Z,14.20
2023-02-22T13:42:09.982Z,14.25
2023-02-22T13:44:36.773Z,14.02
2023-02-22T13:47:11.485Z,13.52
2023-02-22T13:49:31.565Z,13.27
2023-02-22T13:51:38.027Z,14.02
2023-02-22T13:53:47.519Z,13.73
2023-02-22T13:55:53.786Z,13.05
2023-02-22T13:58:07.680Z,13.18
2023-02-22T14:00:40.954Z,14.20
2023-02-22T14:03:06.782Z,13.98
2023-02-22T14:05:46.688Z,13.25
2023-02-22T14:07:48.885Z,13.20
2023-02-22T14:09:59.153Z,14.20
2023-02-22T14:12:00.641Z,14.07
2023-02-22T14:14:02.061Z,13.10
2023-02-22T14:16:06.287Z,13.52
2023-02-22T14:18:16.928Z,13.75
2023-02-22T14:20:29.975Z,13.35
2023-02-22T14:22:31.744Z,12.43
2023-02-22T14:24:44.510Z,13.23
2023-02-22T14:27:04.704Z,13.00
2023-02-22T14:29:09.147Z,12.75
2023-02-22T14:31:25.783Z,13.13
2023-02-22T14:33:59.377Z,12.90
2023-02-22T14:36:01.014Z,12.77
2023-02-22T14:38:04.054Z,12.82
2023-02-22T14:40:26.842Z,13.70
2023-02-22T14:42:35.880Z,14.10
2023-02-22T14:44:43.653Z,13.00
2023-02-22T14:46:50.022Z,13.30
2023-02-22T14:48:59.765Z,13.18
2023-02-22T14:51:19.094Z,12.55
2023-02-22T14:53:44.260Z,13.27
2023-02-22T14:56:03.889Z,13.95
2023-02-22T14:58:10.810Z,13.43
2023-02-22T15:00:22.784Z,13.10
2023-02-22T15:02:26.038Z,12.82
2023-02-22T15:04:31.015Z,12.98
2023-02-22T15:06:35.229Z,13.40
2023-02-22T15:08:41.614Z,13.05
2023-02-22T15:10:48.300Z,13.13
2023-02-22T15:13:08.633Z,13.57
2023-02-22T15:15:22.738Z,13.82
2023-02-22T15:17:24.975Z,14.00
2023-02-22T15:19:29.027Z,13.90
2023-02-22T15:21:32.125Z,13.07
2023-02-22T15:23:49.010Z,14.35
2023-02-22T15:25:50.908Z,13.60
2023-02-22T15:27:52.510Z,14.32
2023-02-22T15:30:04.522Z,14.50
2023-02-22T15:32:36.687Z,13.75
2023-02-22T15:34:38.228Z,13.85
2023-02-22T15:36:39.807Z,14.02
2023-02-22T15:38:43.179Z,14.50
2023-02-22T15:40:45.594Z,13.70
2023-02-22T15:42:58.364Z,13.77
2023-02-22T15:44:59.914Z,14.15
2023-02-22T15:47:01.434Z,14.02
2023-02-22T15:49:20.553Z,15.05
2023-02-22T15:51:22.068Z,14.52
2023-02-22T15:53:28.819Z,15.07
2023-02-22T15:55:36.975Z,14.40
2023-02-22T15:57:38.513Z,14.20
2023-02-22T15:59:43.740Z,13.77
2023-02-22T16:01:48.056Z,14.77
2023-02-22T16:03:55.516Z,14.18
2023-02-22T16:05:58.500Z,14.27
2023-02-22T16:08:00.024Z,13.57
2023-02-22T16:10:08.982Z,14.35
2023-02-22T16:12:22.714Z,13.27
2023-02-22T16:14:30.309Z,13.68
2023-02-22T16:16:34.901Z,14.05
2023-02-22T16:18:41.305Z,13.55
2023-02-22T16:20:42.833Z,13.85
2023-02-22T16:22:51.569Z,13.77
2023-02-22T16:24:54.574Z,13.10
2023-02-22T16:27:10.502Z,13.63
2023-02-22T16:29:26.377Z,12.98
2023-02-22T16:31:34.354Z,14.13
2023-02-22T16:33:35.878Z,14.75
2023-02-22T16:35:37.453Z,13.48
2023-02-22T16:37:38.913Z,13.77
2023-02-22T16:39:41.766Z,13.80
2023-02-22T16:41:43.297Z,14.20
2023-02-22T16:43:47.005Z,14.45
2023-02-22T16:45:48.530Z,13.70
2023-02-22T16:47:53.778Z,13.82
2023-02-22T16:49:57.042Z,13.23
2023-02-22T16:52:01.503Z,13.32
2023-02-22T16:54:03.170Z,13.98
2023-02-22T16:56:08.598Z,14.13
2023-02-22T16:58:12.499Z,13.85
2023-02-22T17:00:21.828Z,13.45
2023-02-22T17:02:23.314Z,13.32
2023-02-22T17:04:26.475Z,14.25
2023-02-22T17:06:29.199Z,14.63
2023-02-22T17:08:31.303Z,14.02
2023-02-22T17:10:34.069Z,13.82
2023-02-22T17:12:35.648Z,13.68
2023-02-22T17:14:37.233Z,15.07
2023-02-22T17:16:38.722Z,14.20
2023-02-22T17:18:40.308Z,14.70
2023-02-22T17:20:45.655Z,14.82
2023-02-22T17:22:47.911Z,14.45
2023-02-22T17:24:49.603Z,14.65
2023-02-22T17:26:53.124Z,14.07
2023-02-22T17:28:54.630Z,14.65
2023-02-22T17:31:01.955Z,15.00
2023-02-22T17:33:06.126Z,13.88
2023-02-22T17:35:07.717Z,15.27
2023-02-22T17:37:09.182Z,14.25
2023-02-22T17:39:10.994Z,15.18
2023-02-22T17:41:12.470Z,13.93
2023-02-22T17:43:14.686Z,13.65
2023-02-22T17:45:16.198Z,15.10
2023-02-22T17:47:17.718Z,14.68
2023-02-22T17:49:19.345Z,14.45
2023-02-22T17:51:25.849Z,15.35
2023-02-22T17:53:27.308Z,14.40
2023-02-22T17:55:29.835Z,15.55
2023-02-22T17:57:31.305Z,15.13
2023-02-22T17:59:32.929Z,14.73
2023-02-22T18:01:35.236Z,15.80
2023-02-22T18:03:39.470Z,14.77
2023-02-22T18:05:43.568Z,16.10
2023-02-22T18:07:46.144Z,15.25
2023-02-22T18:09:47.694Z,15.38
2023-02-22T18:11:49.228Z,15.50
2023-02-22T18:13:50.681Z,15.50
2023-02-22T18:15:52.705Z,15.25
2023-02-22T18:17:54.622Z,15.27
2023-02-22T18:19:56.436Z,15.73
2023-02-22T18:22:00.205Z,16.02
2023-02-22T18:24:01.999Z,15.40
2023-02-22T18:26:11.111Z,15.90
2023-02-22T18:28:13.033Z,15.40
2023-02-22T18:30:14.604Z,15.50
2023-02-22T18:32:16.125Z,15.50
2023-02-22T18:34:17.621Z,15.25
2023-02-22T18:36:23.681Z,16.40
2023-02-22T18:38:25.606Z,15.60
2023-02-22T18:40:27.133Z,17.05
2023-02-22T18:42:28.859Z,15.18
2023-02-22T18:44:31.734Z,15.63
2023-02-22T18:46:33.289Z,15.95
2023-02-22T18:48:35.544Z,17.20
2023-02-22T18:50:37.839Z,19.33
2023-02-22T18:52:45.963Z,17.75
2023-02-22T18:54:49.417Z,17.95
2023-02-22T18:56:50.944Z,16.83
2023-02-22T18:58:56.946Z,15.93
2023-02-22T19:01:02.872Z,15.45
2023-02-22T19:03:05.772Z,16.90
2023-02-22T19:05:09.781Z,15.85
2023-02-22T19:07:17.744Z,16.30
2023-02-22T19:09:19.322Z,15.63
2023-02-22T19:11:23.810Z,16.45
2023-02-22T19:13:25.287Z,16.02
2023-02-22T19:15:26.752Z,15.15
2023-02-22T19:17:29.713Z,16.33
2023-02-22T19:19:31.503Z,15.85
2023-02-22T19:21:33.197Z,16.45
2023-02-22T19:23:36.281Z,16.40
2023-02-22T19:25:41.127Z,15.05
2023-02-22T19:27:44.404Z,16.42
2023-02-22T19:29:47.122Z,15.23
2023-02-22T19:31:54.095Z,15.57
2023-02-22T19:33:56.004Z,16.50
2023-02-22T19:35:59.829Z,16.60
2023-02-22T19:38:01.613Z,14.98
2023-02-22T19:40:09.069Z,15.90
2023-02-22T19:42:10.635Z,17.00
2023-02-22T19:44:12.693Z,16.85
2023-02-22T19:46:17.762Z,17.40
2023-02-22T19:48:20.688Z,16.30
2023-02-22T19:50:22.641Z,15.93
2023-02-22T19:52:24.114Z,15.50
2023-02-22T19:54:25.784Z,15.68
2023-02-22T19:56:28.235Z,15.35
2023-02-22T19:58:32.410Z,15.00
2023-02-22T20:00:37.070Z,16.20
2023-02-22T20:02:39.958Z,15.77
2023-02-22T20:04:41.566Z,16.17
2023-02-22T20:06:44.018Z,16.20
2023-02-22T20:08:45.544Z,16.63
2023-02-22T20:10:47.006Z,14.80
2023-02-22T20:12:48.511Z,16.20
2023-02-22T20:14:50.019Z,16.27
2023-02-22T20:16:53.166Z,16.45
2023-02-22T20:18:55.093Z,16.17
2023-02-22T20:20:56.586Z,15.48
2023-02-22T20:22:58.058Z,15.90
2023-02-22T20:24:59.586Z,15.75
2023-02-22T20:27:01.057Z,14.93
2023-02-22T20:29:04.204Z,16.33
2023-02-22T20:31:11.147Z,16.05
2023-02-22T20:33:13.953Z,17.00
2023-02-22T20:35:16.502Z,15.35
2023-02-22T20:37:18.261Z,15.27
2023-02-22T20:39:20.028Z,15.50
2023-02-22T20:41:26.154Z,14.55
2023-02-22T20:43:27.614Z,15.82
2023-02-22T20:45:29.100Z,16.05
2023-02-22T20:47:30.755Z,16.15
2023-02-22T20:49:32.529Z,15.80
2023-02-22T20:51:35.365Z,15.48
2023-02-22T20:53:41.349Z,16.52
2023-02-22T20:55:52.984Z,15.25
2023-02-22T20:57:54.492Z,16.42
2023-02-22T20:59:56.055Z,15.95
2023-02-22T21:01:57.671Z,17.65
2023-02-22T21:04:03.895Z,15.57
2023-02-22T21:06:06.707Z,16.00
2023-02-22T21:08:08.197Z,14.63
2023-02-22T21:10:09.666Z,15.77
2023-02-22T21:12:13.509Z,16.00
2023-02-22T21:14:18.724Z,16.00
2023-02-22T21:16:31.445Z,16.60
2023-02-22T21:18:33.135Z,16.65
2023-02-22T21:20:35.376Z,14.90
2023-02-22T21:22:38.587Z,15.63
2023-02-22T21:24:40.260Z,16.67
2023-02-22T21:26:41.734Z,15.68
2023-02-22T21:28:51.205Z,15.30
2023-02-22T21:30:53.156Z,16.75
2023-02-22T21:32:55.491Z,15.75
2023-02-22T21:34:57.407Z,16.20
2023-02-22T21:36:58.884Z,17.02
2023-02-22T21:39:08.218Z,16.15
2023-02-22T21:41:15.324Z,16.92
2023-02-22T21:43:16.779Z,16.67
2023-02-22T21:45:19.761Z,16.45
2023-02-22T21:47:21.365Z,17.00
2023-02-22T21:49:23.270Z,16.98
2023-02-22T21:51:32.793Z,17.38
2023-02-22T21:53:34.390Z,17.05
2023-02-22T21:55:38.101Z,16.60
2023-02-22T21:57:40.689Z,24.75
2023-02-22T21:59:42.149Z,21.80
2023-02-22T22:01:55.447Z,16.90
2023-02-22T22:04:01.390Z,18.90
2023-02-22T22:06:09.825Z,20.38
2023-02-22T22:08:19.345Z,20.20
2023-02-22T22:10:26.790Z,18.55
2023-02-22T22:12:37.422Z,17.40
2023-02-22T22:14:40.525Z,17.83
2023-02-22T22:16:41.991Z,17.05
2023-02-22T22:18:44.770Z,16.17
2023-02-22T22:20:46.236Z,16.95
2023-02-22T22:22:47.760Z,17.10
2023-02-22T22:24:50.012Z,17.35
2023-02-22T22:26:54.766Z,16.63
2023-02-22T22:28:59.267Z,17.30
2023-02-22T22:31:00.834Z,19.95
2023-02-22T22:33:06.402Z,19.38
2023-02-22T22:35:14.738Z,24.52
2023-02-22T22:37:16.653Z,24.05
2023-02-22T22:39:20.895Z,23.33
2023-02-22T22:41:23.390Z,21.40
2023-02-22T22:43:25.019Z,21.83
2023-02-22T22:45:26.608Z,19.45
2023-02-22T22:47:28.645Z,20.05
2023-02-22T22:49:32.536Z,21.58
2023-02-22T22:51:34.304Z,19.85
2023-02-22T22:53:41.566Z,20.15
2023-02-22T22:55:43.256Z,20.38
2023-02-22T22:57:44.724Z,21.63
2023-02-22T22:59:46.169Z,20.13
2023-02-22T23:01:47.661Z,20.10
2023-02-22T23:03:55.825Z,19.52
2023-02-22T23:06:02.140Z,22.10
2023-02-22T23:08:04.967Z,21.08
2023-02-22T23:10:07.073Z,21.48
2023-02-22T23:12:08.860Z,21.70
2023-02-22T23:14:21.229Z,21.38
2023-02-22T23:16:24.619Z,21.27
2023-02-22T23:18:26.178Z,21.02
2023-02-22T23:20:27.683Z,21.17
2023-02-22T23:22:29.255Z,21.75
2023-02-22T23:24:33.434Z,20.10
2023-02-22T23:26:35.172Z,20.35
2023-02-22T23:28:38.480Z,19.98
2023-02-22T23:30:41.046Z,20.15
2023-02-22T23:32:42.604Z,19.88
2023-02-22T23:34:44.182Z,19.50
2023-02-22T23:36:46.664Z,18.23
2023-02-22T23:38:48.625Z,19.00
2023-02-22T23:40:53.926Z,18.50
2023-02-22T23:42:55.630Z,17.60
2023-02-22T23:44:57.234Z,18.13
2023-02-22T23:46:58.759Z,16.92
2023-02-22T23:49:03.154Z,18.83
2023-02-22T23:51:09.341Z,18.95
2023-02-22T23:53:15.160Z,20.25
2023-02-22T23:55:20.724Z,21.35
2023-02-22T23:57:24.082Z,20.02
2023-02-22T23:59:27.131Z,21.40
